Terminal Aerodrome Forecast
Issued by NWS

Home | Current Version | Previous Version | Text Only | Print | Product List | Glossary On
Versions: 1 2 3 4 5 6 7 8 9 10 11 12 13 14 15 16 17 18 19 20 21 22 23 24 25 26 27 28 29 30 31 32 33 34 35 36 37 38 39
000
FTUS46 KPQR 220541
TAFONP
TAF
KONP 220541Z 2206/2306 23010KT 2SM -RADZ BR BKN009 OVC015
     FM221600 VRB03KT 3SM BR VCSH SCT009 BKN015 OVC050
     FM222200 08005KT P6SM OVC080=

USA.gov is the U.S. government's official web portal to all federal, state and local government web resources and services.